SFR510 FAOR-FALE
Flight info
| Callsign | SFR510 |
|---|---|
| Flight time | 0h 52m |
| Altitude | 33000 |
| Route | APDAK1B APDAK UQ48 APMAT APMAT1A |
| Aircraft | B738/M-SDE2E3FGHIRWXY/LB1 |
Departure
| Time | 2026-05-06 15:24 |
|---|---|
| Airport | O.R. Tambo International Airport (FAOR) |
Arrival
| Time | 2026-05-06 16:16 |
|---|---|
| Airport | King Shaka International Airport (FALE) |
| Time | Latitude | Longitude | Altitude | Speed | Heading |
|---|---|---|---|---|---|
| 2026-05-06 14:56 | -26.13682 | 28.23107 | 5546 ft | 0 kts | 6° |
| 2026-05-06 15:16 | -26.13699 | 28.23105 | 5547 ft | 4 kts | 6° |
| 2026-05-06 15:17 | -26.13722 | 28.23103 | 5547 ft | 4 kts | 14° |
| 2026-05-06 15:17 | -26.13740 | 28.23090 | 5551 ft | 4 kts | 74° |
| 2026-05-06 15:17 | -26.13741 | 28.23065 | 5549 ft | 1 kts | 96° |
| 2026-05-06 15:17 | -26.13741 | 28.23060 | 5550 ft | 0 kts | 96° |
| 2026-05-06 15:20 | -26.13741 | 28.23063 | 5550 ft | 3 kts | 96° |
| 2026-05-06 15:21 | -26.13747 | 28.23129 | 5547 ft | 11 kts | 96° |
| 2026-05-06 15:21 | -26.13755 | 28.23212 | 5550 ft | 11 kts | 95° |
| 2026-05-06 15:21 | -26.13772 | 28.23292 | 5550 ft | 11 kts | 120° |
| 2026-05-06 15:21 | -26.13833 | 28.23338 | 5546 ft | 11 kts | 150° |
| 2026-05-06 15:22 | -26.13871 | 28.23408 | 5554 ft | 11 kts | 106° |
| 2026-05-06 15:22 | -26.13891 | 28.23487 | 5561 ft | 11 kts | 104° |
| 2026-05-06 15:22 | -26.13914 | 28.23563 | 5562 ft | 10 kts | 124° |
| 2026-05-06 15:22 | -26.13946 | 28.23631 | 5562 ft | 10 kts | 90° |
| 2026-05-06 15:23 | -26.13886 | 28.23669 | 5562 ft | 17 kts | 17° |
| 2026-05-06 15:23 | -26.13557 | 28.23767 | 5555 ft | 83 kts | 15° |
| 2026-05-06 15:23 | -26.12793 | 28.23993 | 5546 ft | 141 kts | 14° |
| 2026-05-06 15:23 | -26.11737 | 28.24341 | 5705 ft | 167 kts | 6° |
| 2026-05-06 15:24 | -26.10547 | 28.24630 | 6169 ft | 184 kts | 6° |
| 2026-05-06 15:24 | -26.09261 | 28.24908 | 6824 ft | 194 kts | 14° |
| 2026-05-06 15:24 | -26.08137 | 28.25800 | 7415 ft | 212 kts | 49° |
| 2026-05-06 15:24 | -26.07603 | 28.27421 | 7602 ft | 240 kts | 90° |
| 2026-05-06 15:25 | -26.08129 | 28.29222 | 7779 ft | 258 kts | 130° |
| 2026-05-06 15:25 | -26.09543 | 28.30538 | 7982 ft | 277 kts | 150° |
| 2026-05-06 15:25 | -26.11234 | 28.31720 | 8389 ft | 293 kts | 151° |
| 2026-05-06 15:25 | -26.12880 | 28.33118 | 9070 ft | 305 kts | 133° |
| 2026-05-06 15:26 | -26.14100 | 28.35014 | 9932 ft | 307 kts | 124° |
| 2026-05-06 15:26 | -26.15279 | 28.37065 | 10527 ft | 317 kts | 124° |
| 2026-05-06 15:26 | -26.16474 | 28.39162 | 10967 ft | 331 kts | 124° |
| 2026-05-06 15:26 | -26.17724 | 28.41341 | 11628 ft | 337 kts | 125° |
| 2026-05-06 15:27 | -26.19007 | 28.43555 | 12301 ft | 343 kts | 125° |
| 2026-05-06 15:27 | -26.20320 | 28.45799 | 12939 ft | 350 kts | 126° |
| 2026-05-06 15:27 | -26.21666 | 28.48089 | 13673 ft | 353 kts | 126° |
| 2026-05-06 15:27 | -26.23016 | 28.50377 | 14423 ft | 355 kts | 127° |
| 2026-05-06 15:28 | -26.24386 | 28.52693 | 14984 ft | 362 kts | 127° |
| 2026-05-06 15:28 | -26.25786 | 28.55056 | 15575 ft | 367 kts | 126° |
| 2026-05-06 15:28 | -26.27199 | 28.57442 | 16198 ft | 371 kts | 126° |
| 2026-05-06 15:28 | -26.28629 | 28.59856 | 16815 ft | 376 kts | 126° |
| 2026-05-06 15:29 | -26.30076 | 28.62301 | 17417 ft | 381 kts | 126° |
| 2026-05-06 15:29 | -26.31543 | 28.64782 | 18035 ft | 385 kts | 126° |
| 2026-05-06 15:29 | -26.33028 | 28.67293 | 18543 ft | 392 kts | 125° |
| 2026-05-06 15:29 | -26.34565 | 28.69891 | 18666 ft | 410 kts | 124° |
| 2026-05-06 15:30 | -26.36149 | 28.72574 | 19062 ft | 418 kts | 124° |
| 2026-05-06 15:30 | -26.37735 | 28.75265 | 19584 ft | 422 kts | 124° |
| 2026-05-06 15:30 | -26.39355 | 28.78012 | 20070 ft | 427 kts | 124° |
| 2026-05-06 15:30 | -26.40996 | 28.80799 | 20551 ft | 433 kts | 124° |
| 2026-05-06 15:31 | -26.42660 | 28.83624 | 21087 ft | 436 kts | 123° |
| 2026-05-06 15:31 | -26.44334 | 28.86468 | 21553 ft | 442 kts | 123° |
| 2026-05-06 15:31 | -26.46037 | 28.89363 | 21938 ft | 449 kts | 123° |
| 2026-05-06 15:32 | -26.49517 | 28.95284 | 22764 ft | 461 kts | 122° |
| 2026-05-06 15:32 | -26.51287 | 28.98297 | 23154 ft | 467 kts | 122° |
| 2026-05-06 15:32 | -26.53075 | 29.01344 | 23610 ft | 471 kts | 122° |
| 2026-05-06 15:32 | -26.54907 | 29.04389 | 23990 ft | 475 kts | 126° |
| 2026-05-06 15:33 | -26.57064 | 29.07186 | 24421 ft | 476 kts | 136° |
| 2026-05-06 15:33 | -26.59415 | 29.09789 | 24903 ft | 476 kts | 137° |
| 2026-05-06 15:33 | -26.61776 | 29.12332 | 25378 ft | 479 kts | 138° |
| 2026-05-06 15:33 | -26.64193 | 29.14929 | 25705 ft | 484 kts | 137° |
| 2026-05-06 15:34 | -26.66610 | 29.17550 | 26164 ft | 484 kts | 137° |
| 2026-05-06 15:34 | -26.69013 | 29.20185 | 26771 ft | 480 kts | 137° |
| 2026-05-06 15:34 | -26.71380 | 29.22801 | 27410 ft | 476 kts | 137° |
| 2026-05-06 15:34 | -26.73723 | 29.25402 | 27963 ft | 473 kts | 136° |
| 2026-05-06 15:35 | -26.76059 | 29.27998 | 28413 ft | 473 kts | 136° |
| 2026-05-06 15:35 | -26.78399 | 29.30601 | 28841 ft | 474 kts | 136° |
| 2026-05-06 15:35 | -26.80709 | 29.33170 | 29330 ft | 473 kts | 136° |
| 2026-05-06 15:35 | -26.83036 | 29.35759 | 29911 ft | 471 kts | 136° |
| 2026-05-06 15:36 | -26.85352 | 29.38337 | 30400 ft | 467 kts | 136° |
| 2026-05-06 15:36 | -26.87659 | 29.40905 | 30773 ft | 467 kts | 136° |
| 2026-05-06 15:36 | -26.89972 | 29.43482 | 31086 ft | 468 kts | 136° |
| 2026-05-06 15:36 | -26.92346 | 29.45977 | 31373 ft | 468 kts | 144° |
| 2026-05-06 15:37 | -26.94956 | 29.48145 | 31683 ft | 466 kts | 149° |
| 2026-05-06 15:37 | -26.97626 | 29.50206 | 32012 ft | 465 kts | 150° |
| 2026-05-06 15:37 | -27.00305 | 29.52232 | 32367 ft | 464 kts | 150° |
| 2026-05-06 15:37 | -27.02973 | 29.54254 | 32682 ft | 462 kts | 150° |
| 2026-05-06 15:38 | -27.05628 | 29.56286 | 32995 ft | 463 kts | 149° |
| 2026-05-06 15:38 | -27.08275 | 29.58328 | 32974 ft | 470 kts | 149° |
| 2026-05-06 15:38 | -27.13631 | 29.62509 | 32970 ft | 466 kts | 148° |
| 2026-05-06 15:39 | -27.18900 | 29.66650 | 32972 ft | 460 kts | 148° |
| 2026-05-06 15:39 | -27.24160 | 29.70782 | 32973 ft | 462 kts | 149° |
| 2026-05-06 15:40 | -27.29433 | 29.74926 | 33002 ft | 464 kts | 148° |
| 2026-05-06 15:40 | -27.34738 | 29.79101 | 32970 ft | 465 kts | 148° |
| 2026-05-06 15:41 | -27.40051 | 29.83288 | 32901 ft | 465 kts | 148° |
| 2026-05-06 15:41 | -27.45298 | 29.87430 | 32950 ft | 462 kts | 148° |
| 2026-05-06 15:42 | -27.50566 | 29.91590 | 32968 ft | 462 kts | 147° |
| 2026-05-06 15:42 | -27.55836 | 29.95758 | 32945 ft | 462 kts | 147° |
| 2026-05-06 15:43 | -27.61086 | 29.99916 | 32943 ft | 461 kts | 147° |
| 2026-05-06 15:43 | -27.66329 | 30.04072 | 32935 ft | 460 kts | 147° |
| 2026-05-06 15:44 | -27.71563 | 30.08231 | 32932 ft | 460 kts | 147° |
| 2026-05-06 15:44 | -27.76792 | 30.12406 | 32895 ft | 460 kts | 147° |
| 2026-05-06 15:45 | -27.81981 | 30.16554 | 32923 ft | 460 kts | 147° |
| 2026-05-06 15:45 | -27.87217 | 30.20745 | 32929 ft | 461 kts | 147° |
| 2026-05-06 15:46 | -27.92459 | 30.24943 | 32972 ft | 463 kts | 146° |
| 2026-05-06 15:46 | -27.97739 | 30.29178 | 32922 ft | 466 kts | 146° |
| 2026-05-06 15:47 | -28.03057 | 30.33449 | 32530 ft | 472 kts | 146° |
| 2026-05-06 15:47 | -28.05730 | 30.35598 | 32157 ft | 470 kts | 146° |
| 2026-05-06 15:47 | -28.08394 | 30.37741 | 31744 ft | 470 kts | 146° |
| 2026-05-06 15:48 | -28.11063 | 30.39889 | 31262 ft | 470 kts | 146° |
| 2026-05-06 15:48 | -28.13731 | 30.42038 | 30906 ft | 471 kts | 145° |
| 2026-05-06 15:48 | -28.16381 | 30.44173 | 30427 ft | 474 kts | 144° |
| 2026-05-06 15:48 | -28.19074 | 30.46345 | 29950 ft | 476 kts | 144° |
| 2026-05-06 15:49 | -28.21783 | 30.48531 | 29387 ft | 478 kts | 144° |
| 2026-05-06 15:49 | -28.24500 | 30.50725 | 28847 ft | 479 kts | 144° |
| 2026-05-06 15:49 | -28.27219 | 30.52923 | 28288 ft | 481 kts | 144° |
| 2026-05-06 15:49 | -28.29951 | 30.55131 | 27739 ft | 483 kts | 144° |
| 2026-05-06 15:50 | -28.32694 | 30.57349 | 27185 ft | 485 kts | 144° |
| 2026-05-06 15:50 | -28.35447 | 30.59577 | 26653 ft | 487 kts | 144° |
| 2026-05-06 15:50 | -28.38215 | 30.61816 | 26098 ft | 489 kts | 143° |
| 2026-05-06 15:50 | -28.40983 | 30.64057 | 25616 ft | 489 kts | 143° |
| 2026-05-06 15:51 | -28.43723 | 30.66277 | 25146 ft | 489 kts | 143° |
| 2026-05-06 15:51 | -28.46500 | 30.68528 | 24644 ft | 490 kts | 143° |
| 2026-05-06 15:51 | -28.49277 | 30.70782 | 24162 ft | 490 kts | 143° |
| 2026-05-06 15:51 | -28.52039 | 30.73024 | 23698 ft | 485 kts | 143° |
| 2026-05-06 15:52 | -28.54774 | 30.75246 | 23170 ft | 480 kts | 143° |
| 2026-05-06 15:52 | -28.57475 | 30.77442 | 22664 ft | 475 kts | 143° |
| 2026-05-06 15:52 | -28.60149 | 30.79618 | 22194 ft | 469 kts | 143° |
| 2026-05-06 15:52 | -28.62782 | 30.81762 | 21742 ft | 463 kts | 143° |
| 2026-05-06 15:53 | -28.65388 | 30.83886 | 21240 ft | 455 kts | 144° |
| 2026-05-06 15:53 | -28.67933 | 30.85960 | 20856 ft | 445 kts | 144° |
| 2026-05-06 15:53 | -28.70429 | 30.87998 | 20384 ft | 439 kts | 144° |
| 2026-05-06 15:53 | -28.72897 | 30.90012 | 19951 ft | 433 kts | 144° |
| 2026-05-06 15:54 | -28.75302 | 30.91977 | 19536 ft | 427 kts | 146° |
| 2026-05-06 15:54 | -28.77704 | 30.93933 | 19139 ft | 421 kts | 146° |
| 2026-05-06 15:54 | -28.80263 | 30.95434 | 18756 ft | 406 kts | 170° |
| 2026-05-06 15:54 | -28.82949 | 30.96154 | 18512 ft | 392 kts | 173° |
| 2026-05-06 15:55 | -28.85613 | 30.96812 | 18109 ft | 389 kts | 173° |
| 2026-05-06 15:55 | -28.88262 | 30.97464 | 17688 ft | 392 kts | 173° |
| 2026-05-06 15:55 | -28.90946 | 30.98136 | 17228 ft | 395 kts | 172° |
| 2026-05-06 15:55 | -28.93634 | 30.98823 | 16838 ft | 395 kts | 172° |
| 2026-05-06 15:56 | -28.96317 | 30.99520 | 16427 ft | 396 kts | 172° |
| 2026-05-06 15:56 | -28.98975 | 31.00215 | 16030 ft | 396 kts | 172° |
| 2026-05-06 15:56 | -29.01654 | 31.00918 | 15677 ft | 390 kts | 172° |
| 2026-05-06 15:56 | -29.04257 | 31.01604 | 15511 ft | 377 kts | 172° |
| 2026-05-06 15:57 | -29.06778 | 31.02268 | 15300 ft | 365 kts | 172° |
| 2026-05-06 15:57 | -29.09210 | 31.02907 | 15148 ft | 352 kts | 172° |
| 2026-05-06 15:57 | -29.11557 | 31.03524 | 15001 ft | 340 kts | 173° |
| 2026-05-06 15:57 | -29.13822 | 31.04123 | 14877 ft | 327 kts | 172° |
| 2026-05-06 15:58 | -29.15986 | 31.04693 | 14615 ft | 320 kts | 173° |
| 2026-05-06 15:58 | -29.18136 | 31.05255 | 14359 ft | 314 kts | 173° |
| 2026-05-06 15:58 | -29.20249 | 31.05808 | 14080 ft | 307 kts | 173° |
| 2026-05-06 15:58 | -29.22310 | 31.06349 | 13836 ft | 299 kts | 173° |
| 2026-05-06 15:59 | -29.24316 | 31.06876 | 13581 ft | 292 kts | 171° |
| 2026-05-06 15:59 | -29.26276 | 31.07390 | 13296 ft | 285 kts | 172° |
| 2026-05-06 15:59 | -29.28185 | 31.07892 | 13013 ft | 279 kts | 172° |
| 2026-05-06 15:59 | -29.30033 | 31.08379 | 12752 ft | 272 kts | 172° |
| 2026-05-06 16:00 | -29.31859 | 31.08859 | 12534 ft | 265 kts | 172° |
| 2026-05-06 16:00 | -29.33633 | 31.09326 | 12283 ft | 259 kts | 171° |
| 2026-05-06 16:00 | -29.35375 | 31.09784 | 12048 ft | 255 kts | 171° |
| 2026-05-06 16:00 | -29.37108 | 31.10240 | 11848 ft | 257 kts | 171° |
| 2026-05-06 16:01 | -29.38868 | 31.10703 | 11602 ft | 262 kts | 172° |
| 2026-05-06 16:01 | -29.40667 | 31.11176 | 11382 ft | 267 kts | 172° |
| 2026-05-06 16:01 | -29.42490 | 31.11557 | 11094 ft | 263 kts | 186° |
| 2026-05-06 16:01 | -29.43645 | 31.11322 | 10927 ft | 247 kts | 211° |
| 2026-05-06 16:02 | -29.45098 | 31.10420 | 10777 ft | 234 kts | 220° |
| 2026-05-06 16:02 | -29.46809 | 31.08959 | 10490 ft | 229 kts | 221° |
| 2026-05-06 16:02 | -29.48060 | 31.07841 | 10273 ft | 227 kts | 222° |
| 2026-05-06 16:02 | -29.49302 | 31.06733 | 10059 ft | 225 kts | 221° |
| 2026-05-06 16:03 | -29.50536 | 31.05635 | 9826 ft | 224 kts | 221° |
| 2026-05-06 16:03 | -29.51765 | 31.04549 | 9597 ft | 222 kts | 221° |
| 2026-05-06 16:03 | -29.52595 | 31.03818 | 9422 ft | 222 kts | 221° |
| 2026-05-06 16:03 | -29.53816 | 31.02745 | 9157 ft | 220 kts | 221° |
| 2026-05-06 16:04 | -29.55011 | 31.01697 | 8921 ft | 218 kts | 221° |
| 2026-05-06 16:04 | -29.56211 | 31.00647 | 8718 ft | 214 kts | 221° |
| 2026-05-06 16:04 | -29.57376 | 30.99629 | 8473 ft | 207 kts | 222° |
| 2026-05-06 16:04 | -29.58506 | 30.98642 | 8267 ft | 200 kts | 222° |
| 2026-05-06 16:05 | -29.59594 | 30.97692 | 8042 ft | 193 kts | 222° |
| 2026-05-06 16:05 | -29.60641 | 30.96778 | 7848 ft | 185 kts | 222° |
| 2026-05-06 16:05 | -29.61653 | 30.95893 | 7651 ft | 181 kts | 222° |
| 2026-05-06 16:05 | -29.62641 | 30.95027 | 7472 ft | 182 kts | 221° |
| 2026-05-06 16:06 | -29.63670 | 30.94126 | 7304 ft | 186 kts | 221° |
| 2026-05-06 16:06 | -29.64690 | 30.93232 | 7110 ft | 187 kts | 221° |
| 2026-05-06 16:06 | -29.65723 | 30.92329 | 6921 ft | 186 kts | 221° |
| 2026-05-06 16:06 | -29.66754 | 30.91426 | 6717 ft | 186 kts | 221° |
| 2026-05-06 16:07 | -29.67784 | 30.90525 | 6513 ft | 186 kts | 221° |
| 2026-05-06 16:07 | -29.68814 | 30.89623 | 6307 ft | 185 kts | 221° |
| 2026-05-06 16:07 | -29.69839 | 30.88726 | 6094 ft | 186 kts | 221° |
| 2026-05-06 16:07 | -29.70873 | 30.87822 | 5863 ft | 187 kts | 221° |
| 2026-05-06 16:08 | -29.71902 | 30.86922 | 5633 ft | 184 kts | 221° |
| 2026-05-06 16:08 | -29.72911 | 30.86038 | 5417 ft | 180 kts | 221° |
| 2026-05-06 16:08 | -29.73942 | 30.85165 | 5289 ft | 202 kts | 213° |
| 2026-05-06 16:08 | -29.75391 | 30.84752 | 5356 ft | 228 kts | 179° |
| 2026-05-06 16:09 | -29.76880 | 30.85327 | 5289 ft | 228 kts | 145° |
| 2026-05-06 16:09 | -29.77880 | 30.86672 | 5201 ft | 216 kts | 122° |
| 2026-05-06 16:09 | -29.78523 | 30.88165 | 5142 ft | 201 kts | 112° |
| 2026-05-06 16:09 | -29.79016 | 30.89624 | 4945 ft | 194 kts | 111° |
| 2026-05-06 16:10 | -29.79500 | 30.91080 | 4616 ft | 195 kts | 111° |
| 2026-05-06 16:10 | -29.79979 | 30.92529 | 4324 ft | 192 kts | 110° |
| 2026-05-06 16:10 | -29.80383 | 30.93984 | 4003 ft | 191 kts | 94° |
| 2026-05-06 16:10 | -29.80024 | 30.95394 | 3667 ft | 187 kts | 46° |
| 2026-05-06 16:11 | -29.79028 | 30.96301 | 3367 ft | 186 kts | 37° |
| 2026-05-06 16:11 | -29.77985 | 30.97223 | 3019 ft | 191 kts | 38° |
| 2026-05-06 16:11 | -29.76926 | 30.98158 | 2703 ft | 191 kts | 38° |
| 2026-05-06 16:11 | -29.75872 | 30.99083 | 2671 ft | 192 kts | 39° |
| 2026-05-06 16:12 | -29.74814 | 31.00010 | 2664 ft | 188 kts | 32° |
| 2026-05-06 16:12 | -29.73800 | 31.00900 | 2669 ft | 174 kts | 26° |
| 2026-05-06 16:12 | -29.72888 | 31.01701 | 2690 ft | 157 kts | 25° |
| 2026-05-06 16:12 | -29.72045 | 31.02436 | 2558 ft | 149 kts | 24° |
| 2026-05-06 16:13 | -29.71226 | 31.03149 | 2397 ft | 148 kts | 24° |
| 2026-05-06 16:13 | -29.70404 | 31.03864 | 2203 ft | 146 kts | 26° |
| 2026-05-06 16:13 | -29.69604 | 31.04566 | 2035 ft | 141 kts | 25° |
| 2026-05-06 16:13 | -29.68836 | 31.05235 | 1839 ft | 143 kts | 27° |
| 2026-05-06 16:14 | -29.67965 | 31.05990 | 1667 ft | 165 kts | 30° |
| 2026-05-06 16:14 | -29.67079 | 31.06774 | 1432 ft | 153 kts | 31° |
| 2026-05-06 16:14 | -29.66262 | 31.07489 | 1239 ft | 146 kts | 31° |
| 2026-05-06 16:14 | -29.65451 | 31.08215 | 1060 ft | 146 kts | 33° |
| 2026-05-06 16:15 | -29.64659 | 31.08930 | 781 ft | 145 kts | 30° |
| 2026-05-06 16:15 | -29.63833 | 31.09614 | 615 ft | 148 kts | 32° |
| 2026-05-06 16:15 | -29.63019 | 31.10332 | 433 ft | 147 kts | 32° |
| 2026-05-06 16:15 | -29.62217 | 31.11034 | 301 ft | 136 kts | 31° |
| 2026-05-06 16:16 | -29.61572 | 31.11588 | 301 ft | 97 kts | 36° |
| 2026-05-06 16:16 | -29.61273 | 31.11847 | 300 ft | 22 kts | 37° |
| 2026-05-06 16:16 | -29.61157 | 31.11945 | 300 ft | 16 kts | 31° |
| 2026-05-06 16:16 | -29.61068 | 31.11996 | 299 ft | 14 kts | 23° |
| 2026-05-06 16:17 | -29.60977 | 31.12030 | 299 ft | 13 kts | 13° |
| 2026-05-06 16:17 | -29.60891 | 31.12040 | 301 ft | 11 kts | 353° |
| 2026-05-06 16:17 | -29.60860 | 31.11982 | 300 ft | 9 kts | 255° |
| 2026-05-06 16:17 | -29.60898 | 31.11928 | 300 ft | 9 kts | 220° |
| 2026-05-06 16:18 | -29.60961 | 31.11874 | 302 ft | 18 kts | 217° |
| 2026-05-06 16:18 | -29.61083 | 31.11765 | 302 ft | 25 kts | 217° |
| 2026-05-06 16:18 | -29.61207 | 31.11658 | 302 ft | 22 kts | 218° |
| 2026-05-06 16:18 | -29.61327 | 31.11553 | 301 ft | 21 kts | 218° |
| 2026-05-06 16:19 | -29.61442 | 31.11453 | 297 ft | 21 kts | 217° |
| 2026-05-06 16:19 | -29.61555 | 31.11354 | 298 ft | 20 kts | 217° |
| 2026-05-06 16:19 | -29.61665 | 31.11259 | 294 ft | 19 kts | 216° |
| 2026-05-06 16:19 | -29.61770 | 31.11166 | 298 ft | 19 kts | 218° |
| 2026-05-06 16:20 | -29.61872 | 31.11076 | 297 ft | 18 kts | 216° |
| 2026-05-06 16:20 | -29.61971 | 31.10991 | 297 ft | 17 kts | 217° |
| 2026-05-06 16:20 | -29.62056 | 31.10918 | 295 ft | 12 kts | 217° |
| 2026-05-06 16:20 | -29.62086 | 31.10840 | 298 ft | 12 kts | 291° |
| 2026-05-06 16:21 | -29.62039 | 31.10769 | 295 ft | 11 kts | 306° |
| 2026-05-06 16:21 | -29.61994 | 31.10699 | 295 ft | 11 kts | 307° |
| 2026-05-06 16:21 | -29.62002 | 31.10632 | 299 ft | 6 kts | 219° |
| 2026-05-06 16:21 | -29.62024 | 31.10603 | 295 ft | 5 kts | 258° |
| 2026-05-06 16:22 | -29.62010 | 31.10570 | 296 ft | 4 kts | 307° |
| 2026-05-06 16:22 | -29.61999 | 31.10554 | 295 ft | 1 kts | 307° |
| 2026-05-06 16:22 | -29.61996 | 31.10549 | 295 ft | 1 kts | 306° |
| 2026-05-06 16:22 | -29.61995 | 31.10547 | 295 ft | 0 kts | 306° |